Saturday, January 31, 2015, 7:27 PM EST

KSHD, Staunton / Shenandoah

Location: Weyers Cave, VA, United States Lat: 38.267
Local Time: 7:27 PM EST ( 0:27 GMT) Lon: -78.9
Time Zone: US/Eastern Elev: 1200 ft

Show me the last for .
Show Decoded

2015-01-31 19:15 METAR KSHD 010015Z AUTO 00000KT 10SM CLR M02/M11 A3024 RMK AO2 T10211112 =
2015-01-31 18:55 METAR KSHD 312355Z AUTO 00000KT 10SM CLR M01/M11 A3024 RMK AO2 T10141115 10043
                 21016 =
2015-01-31 18:35 METAR KSHD 312335Z AUTO 00000KT 10SM CLR M01/M11 A3025 RMK AO2 T10141112 =
2015-01-31 18:15 METAR KSHD 312315Z AUTO 00000KT 10SM CLR 00/M12 A3024 RMK AO2 T10011124 =
2015-01-31 17:55 METAR KSHD 312255Z AUTO 00000KT 10SM CLR 01/M14 A3023 RMK AO2 T00081138 =
2015-01-31 17:35 METAR KSHD 312235Z AUTO 01003KT 10SM CLR 02/M14 A3022 RMK AO2 T00151143 =
2015-01-31 17:15 METAR KSHD 312215Z AUTO 36003KT 10SM CLR 03/M16 A3022 RMK AO2 T00331156 =
2015-01-31 16:55 METAR KSHD 312155Z AUTO 35003KT 10SM CLR 04/M15 A3022 RMK AO2 T00401155 =
2015-01-31 16:35 METAR KSHD 312135Z AUTO 02003KT 10SM CLR 04/M16 A3021 RMK AO2 T00401160 =
2015-01-31 16:15 METAR KSHD 312115Z AUTO 00000KT 10SM CLR 04/M17 A3022 RMK AO2 T00421166 =
2015-01-31 15:55 METAR KSHD 312055Z AUTO 00000KT 10SM CLR 04/M16 A3021 RMK AO2 T00421164 =
2015-01-31 15:35 METAR KSHD 312035Z AUTO 04003KT 10SM CLR 04/M16 A3021 RMK AO2 T00421162 =
2015-01-31 15:15 METAR KSHD 312015Z AUTO 00000KT 10SM CLR 03/M17 A3021 RMK AO2 T00341169 =
2015-01-31 14:55 METAR KSHD 311955Z AUTO 00000KT 10SM CLR 03/M16 A3021 RMK AO2 T00341162 =
2015-01-31 14:35 METAR KSHD 311935Z AUTO 02003KT 10SM CLR 03/M16 A3023 RMK AO2 T00301165 =
2015-01-31 14:15 METAR KSHD 311915Z AUTO 11004KT 10SM CLR 02/M17 A3023 RMK AO2 T00241168 =
2015-01-31 13:55 METAR KSHD 311855Z AUTO 10004KT 10SM CLR 02/M17 A3023 RMK AO2 T00221166 =
2015-01-31 13:35 METAR KSHD 311835Z AUTO 06003KT 10SM CLR 02/M17 A3024 RMK AO2 T00181167 =
2015-01-31 13:15 METAR KSHD 311815Z AUTO 00000KT 10SM CLR 01/M17 A3024 RMK AO2 T00101175 =
2015-01-31 12:55 METAR KSHD 311755Z AUTO 02003KT 10SM CLR 01/M17 A3025 RMK AO2 T00071171 10007
                 21114 =
2015-01-31 12:35 METAR KSHD 311735Z AUTO 00000KT 10SM CLR 00/M17 A3026 RMK AO2 T00001171 =
2015-01-31 12:15 METAR KSHD 311715Z AUTO 00000KT 10SM CLR 00/M17 A3028 RMK AO2 T10011175 =
2015-01-31 11:55 METAR KSHD 311655Z AUTO 00000KT 10SM CLR M01/M18 A3028 RMK AO2 T10071180 =
2015-01-31 11:35 METAR KSHD 311635Z AUTO 00000KT 10SM CLR M01/M17 A3030 RMK AO2 T10131173 =
2015-01-31 11:15 METAR KSHD 311615Z AUTO 00000KT 10SM CLR M02/M17 A3031 RMK AO2 T10181168 =
2015-01-31 10:55 METAR KSHD 311555Z AUTO 00000KT 10SM CLR M02/M16 A3031 RMK AO2 T10251164 =
2015-01-31 10:35 METAR KSHD 311535Z AUTO 00000KT 10SM CLR M03/M15 A3031 RMK AO2 T10301154 =
2015-01-31 10:15 METAR KSHD 311515Z AUTO 00000KT 10SM CLR M04/M16 A3031 RMK AO2 T10361163 =
2015-01-31 09:55 METAR KSHD 311455Z AUTO 00000KT 10SM CLR M04/M15 A3030 RMK AO2 T10441146 =
2015-01-31 09:35 METAR KSHD 311435Z AUTO 00000KT 10SM CLR M05/M14 A3030 RMK AO2 T10501143 =
2015-01-31 09:15 METAR KSHD 311415Z AUTO 00000KT 10SM CLR M06/M14 A3030 RMK AO2 T10571136 =
2015-01-31 08:55 METAR KSHD 311355Z AUTO 00000KT 10SM CLR M07/M14 A3029 RMK AO2 T10671140 =
2015-01-31 08:35 METAR KSHD 311335Z AUTO 00000KT 10SM CLR M08/M13 A3029 RMK AO2 T10761127 =
2015-01-31 08:15 METAR KSHD 311315Z AUTO 00000KT 10SM CLR M09/M13 A3028 RMK AO2 T10901126 =
2015-01-31 07:55 METAR KSHD 311255Z AUTO 00000KT 10SM CLR M10/M14 A3029 RMK AO2 T11031136 =
2015-01-31 07:35 METAR KSHD 311235Z AUTO 00000KT 10SM CLR M11/M14 A3028 RMK AO2 T11071141 =
2015-01-31 07:15 METAR KSHD 311215Z AUTO 00000KT 10SM CLR M10/M14 A3028 RMK AO2 T11031145 =
2015-01-31 06:55 METAR KSHD 311155Z AUTO 00000KT 10SM CLR M11/M14 A3028 RMK AO2 T11061142 11065
                 21109 =
2015-01-31 06:35 METAR KSHD 311135Z AUTO 00000KT 10SM CLR M10/M14 A3028 RMK AO2 T11011137 =
2015-01-31 06:15 METAR KSHD 311115Z AUTO 00000KT 10SM CLR M11/M14 A3027 RMK AO2 T11061144 =
2015-01-31 05:55 METAR KSHD 311055Z AUTO 00000KT 10SM CLR M10/M14 A3027 RMK AO2 T11051142 =
2015-01-31 05:15 METAR KSHD 311015Z AUTO 00000KT 10SM CLR M09/M15 A3026 RMK AO2 T10931146 =
2015-01-31 04:55 METAR KSHD 310955Z AUTO 00000KT 10SM CLR M09/M15 A3026 RMK AO2 T10901146 =
2015-01-31 04:35 METAR KSHD 310935Z AUTO 00000KT 10SM CLR M10/M14 A3026 RMK AO2 T10961143 =
2015-01-31 04:15 METAR KSHD 310915Z AUTO 00000KT 10SM CLR M09/M14 A3026 RMK AO2 T10861141 =
2015-01-31 03:55 METAR KSHD 310855Z AUTO 00000KT 10SM CLR M10/M14 A3027 RMK AO2 T10961139 =
2015-01-31 03:35 METAR KSHD 310835Z AUTO 00000KT 10SM CLR M10/M14 A3027 RMK AO2 T10981139 =
2015-01-31 03:15 METAR KSHD 310815Z AUTO 00000KT 10SM CLR M08/M14 A3027 RMK AO2 T10821143 =
2015-01-31 02:55 METAR KSHD 310755Z AUTO 00000KT 10SM CLR M08/M14 A3027 RMK AO2 T10821144 =
2015-01-31 02:35 METAR KSHD 310735Z AUTO 00000KT 10SM CLR M08/M15 A3027 RMK AO2 T10781147 =
2015-01-31 02:15 METAR KSHD 310715Z AUTO 35003KT 10SM CLR M07/M15 A3027 RMK AO2 T10671151 =
2015-01-31 01:35 METAR KSHD 310635Z AUTO 00000KT 10SM CLR M08/M14 A3027 RMK AO2 T10841142 =
2015-01-31 01:15 METAR KSHD 310615Z AUTO 00000KT 10SM CLR M08/M14 A3026 RMK AO2 T10811141 =
2015-01-31 00:55 METAR KSHD 310555Z AUTO 33003KT 10SM CLR M07/M15 A3026 RMK AO2 T10701146 11031
                 21077 400581077 =
2015-01-31 00:35 METAR KSHD 310535Z AUTO 00000KT 10SM CLR M07/M14 A3026 RMK AO2 T10731143 =
2015-01-31 00:15 METAR KSHD 310515Z AUTO 00000KT 10SM CLR M07/M14 A3026 RMK AO2 T10681145 =
2015-01-30 23:55 METAR KSHD 310455Z AUTO 32003KT 10SM CLR M07/M14 A3027 RMK AO2 T10681142 =
2015-01-30 23:35 METAR KSHD 310435Z AUTO 34004KT 10SM CLR M06/M15 A3027 RMK AO2 T10601146 =
2015-01-30 23:15 METAR KSHD 310415Z AUTO 33005KT 10SM CLR M05/M15 A3027 RMK AO2 T10551146 =
2015-01-30 22:55 METAR KSHD 310355Z AUTO 34007KT 10SM CLR M05/M15 A3027 RMK AO2 T10521147 =
2015-01-30 22:35 METAR KSHD 310335Z AUTO 35007KT 10SM CLR M05/M15 A3027 RMK AO2 T10511150 =
2015-01-30 22:15 METAR KSHD 310315Z AUTO 36004KT 10SM CLR M05/M15 A3027 RMK AO2 T10501148 =
2015-01-30 21:55 METAR KSHD 310255Z AUTO 36004KT 10SM CLR M05/M15 A3027 RMK AO2 T10471150 =
2015-01-30 21:35 METAR KSHD 310235Z AUTO 35004KT 10SM CLR M05/M15 A3026 RMK AO2 T10471151 =
2015-01-30 21:15 METAR KSHD 310215Z AUTO 29003KT 10SM CLR M05/M15 A3026 RMK AO2 T10461146 =
2015-01-30 20:55 METAR KSHD 310155Z AUTO 26003KT 10SM CLR M04/M14 A3026 RMK AO2 T10451141 =
2015-01-30 20:35 METAR KSHD 310135Z AUTO 00000KT 10SM CLR M04/M14 A3026 RMK AO2 T10451137 =
2015-01-30 20:15 METAR KSHD 310115Z AUTO 28003KT 10SM CLR M04/M13 A3025 RMK AO2 T10441135 =
2015-01-30 19:55 METAR KSHD 310055Z AUTO 28004KT 10SM CLR M04/M13 A3025 RMK AO2 T10411135 =
2015-01-30 19:35 METAR KSHD 310035Z AUTO 31003KT 10SM CLR M04/M13 A3024 RMK AO2 T10371135 =

Support USWX by starting your Amazon purchase here.